Time;durP1;ratioP1;P1;durP2;ratioP2;P2;SDS_P1;SDS_P2;PMS_P1;PMS_P2;Temp;Humidity;BMP_temperature;BMP_pressure;BME280_temperature;BME280_humidity;BME280_pressure;Samples;Min_cycle;Max_cycle;Signal;HPM_P1;HPM_P2
2021/04/14 00:00:42;;;;;;;3.80;1.00;;;3.40;99.90;;;;;;13082724;22;20363;-47
2021/04/14 00:06:07;;;;;;;2.60;0.93;;;3.40;99.90;;;;;;12957301;22;20047;-47
2021/04/14 00:11:28;;;;;;;1.75;0.65;;;3.40;99.90;;;;;;12952971;22;20024;-48
2021/04/14 00:16:49;;;;;;;3.50;1.20;;;3.30;99.90;;;;;;12952878;22;20091;-48
2021/04/14 00:22:10;;;;;;;2.15;0.60;;;3.30;99.90;;;;;;12953631;22;20457;-47
2021/04/14 00:27:35;;;;;;;1.92;0.90;;;3.20;99.90;;;;;;12953944;22;20375;-48
2021/04/14 00:32:56;;;;;;;2.80;0.90;;;3.20;99.90;;;;;;12952903;22;20015;-48
2021/04/14 00:38:21;;;;;;;2.17;1.02;;;3.20;99.90;;;;;;12952086;22;20220;-48
2021/04/14 00:43:42;;;;;;;2.85;0.95;;;3.10;99.90;;;;;;12952199;22;20106;-47
2021/04/14 00:49:03;;;;;;;3.45;0.60;;;3.00;99.90;;;;;;12952931;22;20011;-47
2021/04/14 00:54:25;;;;;;;2.03;0.90;;;2.90;99.90;;;;;;12954576;22;20094;-47
2021/04/14 00:59:46;;;;;;;1.00;0.47;;;2.80;99.90;;;;;;12952636;22;20600;-48
2021/04/14 01:05:12;;;;;;;1.85;0.80;;;2.80;99.90;;;;;;13058362;22;20023;-47
2021/04/14 01:10:33;;;;;;;1.33;0.55;;;2.80;99.90;;;;;;13084934;22;20015;-47
2021/04/14 01:15:54;;;;;;;1.80;0.75;;;3.00;99.90;;;;;;13088655;22;20015;-47
2021/04/14 01:21:31;;;;;;;1.25;0.73;;;3.10;99.90;;;;;;13087649;22;20011;-47
2021/04/14 01:26:55;;;;;;;1.83;0.90;;;3.20;99.90;;;;;;13087020;22;20036;-47
2021/04/14 01:32:16;;;;;;;1.50;0.75;;;3.30;99.90;;;;;;13083531;22;20011;-47
2021/04/14 01:37:36;;;;;;;3.58;1.02;;;3.40;99.90;;;;;;13084172;22;20015;-47
2021/04/14 01:42:58;;;;;;;3.25;0.63;;;3.50;99.90;;;;;;13086330;22;20284;-48
2021/04/14 01:48:19;;;;;;;2.10;0.85;;;3.50;99.90;;;;;;13082970;22;20633;-47
2021/04/14 01:53:40;;;;;;;2.30;0.98;;;3.50;99.90;;;;;;13085106;22;20570;-47
2021/04/14 01:59:01;;;;;;;9.30;1.10;;;3.50;99.90;;;;;;13086546;22;20049;-48
2021/04/14 02:04:22;;;;;;;3.38;0.95;;;3.60;99.90;;;;;;13086312;22;20026;-48
2021/04/14 02:09:43;;;;;;;2.83;1.17;;;3.60;99.90;;;;;;13087346;22;20014;-48
2021/04/14 02:15:11;;;;;;;2.47;0.88;;;3.60;99.90;;;;;;13085893;22;20015;-48
2021/04/14 02:20:33;;;;;;;3.10;0.88;;;3.50;99.90;;;;;;13087953;22;20475;-48
2021/04/14 02:26:00;;;;;;;2.78;1.05;;;3.50;99.90;;;;;;13083711;22;20439;-48
2021/04/14 02:31:30;;;;;;;2.15;0.70;;;3.50;99.90;;;;;;13084547;22;20090;-48
2021/04/14 02:36:51;;;;;;;2.53;0.85;;;3.50;99.90;;;;;;13082557;22;20529;-48
2021/04/14 02:42:12;;;;;;;4.03;1.58;;;3.60;99.90;;;;;;13083170;22;20413;-48
2021/04/14 02:47:33;;;;;;;2.08;1.00;;;3.60;99.90;;;;;;13083317;22;20015;-48
2021/04/14 02:52:54;;;;;;;1.13;0.50;;;3.70;99.90;;;;;;13084587;22;20438;-48
2021/04/14 02:58:15;;;;;;;1.75;0.80;;;3.70;99.90;;;;;;13082802;22;20425;-48
2021/04/14 03:03:36;;;;;;;1.80;0.75;;;3.60;99.90;;;;;;13082724;22;20019;-48
2021/04/14 03:08:57;;;;;;;1.90;0.68;;;3.60;99.90;;;;;;13085949;22;20003;-48
2021/04/14 03:14:18;;;;;;;6.50;1.40;;;3.60;99.90;;;;;;13084828;22;20068;-47
2021/04/14 03:19:39;;;;;;;2.20;1.08;;;3.60;99.90;;;;;;13083198;22;20034;-48
2021/04/14 03:25:00;;;;;;;1.85;0.82;;;3.50;99.90;;;;;;13084673;22;20018;-48
2021/04/14 03:30:22;;;;;;;2.25;0.90;;;3.40;99.90;;;;;;13083388;22;20014;-47
2021/04/14 03:35:43;;;;;;;2.00;0.63;;;3.30;99.90;;;;;;13080973;22;20015;-47
2021/04/14 03:41:04;;;;;;;2.47;0.98;;;3.30;99.90;;;;;;13081952;22;20015;-47
2021/04/14 03:46:26;;;;;;;1.45;0.88;;;3.30;99.90;;;;;;13085135;22;20121;-48
2021/04/14 03:51:48;;;;;;;3.35;1.20;;;3.20;99.90;;;;;;13084077;22;20019;-47
2021/04/14 03:57:09;;;;;;;2.45;1.00;;;3.10;99.90;;;;;;13082192;22;20015;-47
2021/04/14 04:02:30;;;;;;;3.90;1.58;;;3.10;99.90;;;;;;13084405;22;20050;-47
2021/04/14 04:07:51;;;;;;;2.28;0.90;;;3.10;99.90;;;;;;13082353;22;20336;-47
2021/04/14 04:13:13;;;;;;;2.65;1.15;;;3.00;99.90;;;;;;13082683;22;20010;-47
2021/04/14 04:18:37;;;;;;;2.92;1.17;;;3.10;99.90;;;;;;13082000;22;20017;-47
2021/04/14 04:23:58;;;;;;;2.03;0.85;;;3.10;99.90;;;;;;13082997;22;20325;-48
2021/04/14 04:29:19;;;;;;;2.97;1.20;;;3.10;99.90;;;;;;13082635;22;20081;-48
2021/04/14 04:34:40;;;;;;;2.92;1.25;;;3.20;99.90;;;;;;13081918;22;20088;-47
2021/04/14 04:40:03;;;;;;;2.47;1.20;;;3.20;99.90;;;;;;13084700;22;20087;-47
2021/04/14 04:45:28;;;;;;;2.28;1.15;;;3.30;99.90;;;;;;13088787;22;20470;-48
2021/04/14 04:50:49;;;;;;;2.75;1.00;;;3.30;99.90;;;;;;13085704;22;20022;-48
2021/04/14 04:56:10;;;;;;;2.67;1.17;;;3.30;99.90;;;;;;13086131;22;20056;-47
2021/04/14 05:01:32;;;;;;;1.60;0.90;;;3.30;99.90;;;;;;13086340;22;20018;-48
2021/04/14 05:06:53;;;;;;;3.60;1.45;;;3.30;99.90;;;;;;13086809;22;20026;-48
2021/04/14 05:12:14;;;;;;;5.25;1.50;;;3.20;99.90;;;;;;13085505;22;20105;-48
2021/04/14 05:17:35;;;;;;;3.75;1.35;;;3.20;99.90;;;;;;13083888;22;20443;-48
2021/04/14 05:22:57;;;;;;;1.90;1.02;;;3.20;99.90;;;;;;13088233;22;20007;-48
2021/04/14 05:28:21;;;;;;;3.70;2.00;;;3.20;99.90;;;;;;13088011;22;20011;-48
2021/04/14 05:33:42;;;;;;;3.95;1.52;;;3.20;99.90;;;;;;13086312;22;20182;-47
2021/04/14 05:39:03;;;;;;;5.75;1.63;;;3.30;99.90;;;;;;13087045;22;20017;-47
2021/04/14 05:44:24;;;;;;;12.38;2.10;;;3.40;99.90;;;;;;13085490;22;20126;-47
2021/04/14 05:49:47;;;;;;;6.65;2.78;;;3.60;99.90;;;;;;13087334;22;20015;-48
2021/04/14 05:55:10;;;;;;;6.30;1.85;;;3.70;99.90;;;;;;13086633;22;20260;-48
2021/04/14 06:00:31;;;;;;;6.45;2.08;;;4.00;99.90;;;;;;13087561;22;20034;-48
2021/04/14 06:05:56;;;;;;;4.15;1.88;;;4.20;99.90;;;;;;13085160;22;20110;-47
2021/04/14 06:11:18;;;;;;;6.30;2.72;;;4.40;99.90;;;;;;13087817;22;20333;-47
2021/04/14 06:16:39;;;;;;;5.80;2.22;;;4.30;99.90;;;;;;13088120;22;20122;-48
2021/04/14 06:22:00;;;;;;;4.55;2.20;;;4.10;99.90;;;;;;13086750;22;20017;-48
2021/04/14 06:33:19;;;;;;;8.25;2.45;;;4.20;99.90;;;;;;12950248;22;20033;-47
2021/04/14 06:38:46;;;;;;;7.90;2.35;;;4.10;99.90;;;;;;13086813;22;20259;-47
2021/04/14 06:44:45;;;;;;;8.50;2.35;;;3.90;99.90;;;;;;13082792;22;20442;-48
2021/04/14 06:50:47;;;;;;;4.38;2.13;;;3.70;99.90;;;;;;13085425;22;20003;-48
2021/04/14 06:56:15;;;;;;;6.13;2.53;;;3.50;99.90;;;;;;13083682;22;20011;-48
2021/04/14 07:01:52;;;;;;;6.93;2.03;;;3.60;99.90;;;;;;13085360;22;20018;-48
2021/04/14 07:07:24;;;;;;;17.35;2.78;;;3.60;99.90;;;;;;13087508;22;20076;-48
2021/04/14 07:12:45;;;;;;;7.78;3.40;;;3.70;99.90;;;;;;13088702;22;20513;-48
2021/04/14 07:18:24;;;;;;;8.23;2.42;;;3.70;99.90;;;;;;13082495;22;20014;-48
2021/04/14 07:23:50;;;;;;;8.02;3.72;;;3.70;99.90;;;;;;13085326;22;20015;-48
2021/04/14 07:29:17;;;;;;;4.18;2.22;;;3.80;99.90;;;;;;13081953;22;20014;-48
2021/04/14 07:34:44;;;;;;;10.63;1.77;;;4.00;99.90;;;;;;13068461;22;20343;-48
2021/04/14 07:40:26;;;;;;;12.85;2.90;;;4.10;99.90;;;;;;13080308;22;20403;-48
2021/04/14 07:45:48;;;;;;;7.15;2.17;;;4.20;99.90;;;;;;13075411;22;20019;-48
2021/04/14 07:51:13;;;;;;;6.53;2.58;;;4.10;99.90;;;;;;13079248;22;20003;-48
2021/04/14 07:57:00;;;;;;;11.00;2.58;;;4.10;99.90;;;;;;13074675;22;20010;-48
2021/04/14 08:02:32;;;;;;;6.80;2.35;;;4.20;99.90;;;;;;13085630;22;20023;-48
2021/04/14 08:07:54;;;;;;;4.43;2.13;;;4.50;99.90;;;;;;13084176;22;20046;-48
2021/04/14 08:13:25;;;;;;;5.95;2.00;;;4.80;99.90;;;;;;13081160;22;20034;-48
2021/04/14 08:18:59;;;;;;;7.13;2.33;;;5.20;99.90;;;;;;13082437;22;20313;-48
2021/04/14 08:24:33;;;;;;;9.55;2.22;;;5.40;99.90;;;;;;13086215;22;20050;-48
2021/04/14 08:30:14;;;;;;;5.68;2.38;;;5.60;99.90;;;;;;13082664;22;20007;-48
2021/04/14 08:35:42;;;;;;;6.57;2.17;;;5.80;99.90;;;;;;13078845;22;20042;-50
2021/04/14 08:41:04;;;;;;;5.63;1.55;;;6.10;99.90;;;;;;13083829;22;20007;-50
2021/04/14 08:46:26;;;;;;;4.15;1.60;;;6.40;99.90;;;;;;13084772;22;20014;-50
2021/04/14 08:51:50;;;;;;;6.43;1.85;;;6.70;99.90;;;;;;13084208;22;20501;-50
2021/04/14 08:57:14;;;;;;;5.30;2.25;;;7.00;99.90;;;;;;13077272;22;20054;-50
2021/04/14 09:02:39;;;;;;;6.68;2.85;;;6.80;99.90;;;;;;13082571;22;20114;-50
2021/04/14 09:08:01;;;;;;;6.45;2.05;;;6.80;99.90;;;;;;13079365;22;20109;-50
2021/04/14 09:13:45;;;;;;;6.57;2.55;;;6.50;99.90;;;;;;13080401;22;20011;-50
2021/04/14 09:19:09;;;;;;;6.47;2.38;;;6.20;99.90;;;;;;13081347;22;20445;-50
2021/04/14 09:24:33;;;;;;;12.65;3.22;;;6.70;99.90;;;;;;13083742;22;20023;-50
2021/04/14 09:30:13;;;;;;;4.25;1.90;;;7.10;99.90;;;;;;13063341;22;20171;-50
2021/04/14 09:35:34;;;;;;;4.57;2.53;;;7.80;99.90;;;;;;13081708;22;20088;-48
2021/04/14 09:41:10;;;;;;;3.67;1.60;;;8.40;99.90;;;;;;13077204;22;20443;-48
2021/04/14 09:46:37;;;;;;;4.97;2.35;;;8.80;99.90;;;;;;13082343;22;20030;-48
2021/04/14 09:52:00;;;;;;;5.25;1.90;;;9.50;99.90;;;;;;13082135;22;20007;-49
2021/04/14 09:57:28;;;;;;;3.13;1.30;;;10.20;99.90;;;;;;13088193;22;20015;-49
2021/04/14 10:02:56;;;;;;;2.47;0.50;;;10.60;99.90;;;;;;13084001;22;20026;-49
2021/04/14 10:08:18;;;;;;;1.55;0.60;;;10.60;99.90;;;;;;13085862;22;20034;-49
2021/04/14 10:13:39;;;;;;;2.70;0.70;;;10.50;99.90;;;;;;13090940;22;20009;-49
2021/04/14 10:19:05;;;;;;;5.10;0.70;;;9.80;99.90;;;;;;13088106;22;20006;-49
2021/04/14 10:24:26;;;;;;;2.85;0.65;;;9.20;99.90;;;;;;13083509;22;20384;-49
2021/04/14 10:29:48;;;;;;;1.15;0.60;;;9.00;99.90;;;;;;13084315;22;20435;-49
2021/04/14 10:35:12;;;;;;;1.70;0.70;;;8.80;99.90;;;;;;13084974;22;20010;-48
2021/04/14 10:40:51;;;;;;;1.30;0.63;;;8.40;99.90;;;;;;13087908;22;20346;-48
2021/04/14 10:46:27;;;;;;;1.48;0.50;;;8.40;99.90;;;;;;13085713;22;20394;-49
2021/04/14 10:51:52;;;;;;;2.75;0.75;;;8.70;99.90;;;;;;13039324;22;20102;-48
2021/04/14 10:57:25;;;;;;;1.30;0.32;;;9.00;99.90;;;;;;13060849;22;20684;-48
2021/04/14 11:02:48;;;;;;;0.85;0.32;;;10.00;99.90;;;;;;13064483;22;20029;-48
2021/04/14 11:08:10;;;;;;;0.22;0.08;;;11.70;99.90;;;;;;13060494;22;20518;-48
2021/04/14 11:13:36;;;;;;;0.43;0.10;;;12.20;98.30;;;;;;13065993;22;20025;-49
2021/04/14 11:18:57;;;;;;;0.10;0.00;;;12.60;94.50;;;;;;13067067;22;20615;-48
2021/04/14 11:24:18;;;;;;;0.32;0.20;;;12.60;85.40;;;;;;13065248;22;20019;-48
2021/04/14 11:29:39;;;;;;;0.20;0.00;;;12.80;85.60;;;;;;13060800;22;20018;-48
2021/04/14 11:35:08;;;;;;;0.30;0.10;;;12.80;88.40;;;;;;13064145;22;20786;-49
2021/04/14 11:40:37;;;;;;;0.20;0.00;;;13.00;85.90;;;;;;13065775;22;20019;-49
2021/04/14 11:46:27;;;;;;;0.25;0.10;;;13.20;82.10;;;;;;13066220;22;20241;-49
2021/04/14 11:51:48;;;;;;;0.30;0.10;;;13.70;77.10;;;;;;13055332;22;20477;-49
2021/04/14 11:57:12;;;;;;;0.68;0.20;;;13.60;75.90;;;;;;13066028;22;20335;-49
2021/04/14 12:02:37;;;;;;;0.43;0.10;;;14.20;74.40;;;;;;13067546;22;20022;-49
2021/04/14 12:08:00;;;;;;;0.65;0.20;;;15.00;76.10;;;;;;13059966;22;20019;-49
2021/04/14 12:13:22;;;;;;;3.80;0.73;;;15.00;72.70;;;;;;13067438;22;20507;-49
2021/04/14 12:18:43;;;;;;;0.25;0.10;;;15.30;71.00;;;;;;13067000;22;20041;-49
2021/04/14 12:24:04;;;;;;;3.60;0.52;;;15.10;69.00;;;;;;13062162;22;20014;-49
2021/04/14 12:29:25;;;;;;;0.90;0.08;;;15.30;75.60;;;;;;13059342;22;20057;-49
2021/04/14 12:34:47;;;;;;;0.10;0.10;;;15.70;69.70;;;;;;13063687;22;20010;-49
2021/04/14 12:40:08;;;;;;;0.68;0.10;;;15.60;68.90;;;;;;13066552;22;20007;-49
2021/04/14 12:45:35;;;;;;;0.63;0.05;;;15.80;64.70;;;;;;13065190;22;20027;-49
2021/04/14 12:51:04;;;;;;;1.55;0.10;;;16.50;61.60;;;;;;13050960;22;20011;-50
2021/04/14 12:56:31;;;;;;;0.30;0.00;;;16.50;61.90;;;;;;13063973;22;20010;-49
2021/04/14 13:02:00;;;;;;;0.32;0.10;;;17.20;59.50;;;;;;13064041;22;20014;-49
2021/04/14 13:07:54;;;;;;;0.57;0.10;;;17.00;59.10;;;;;;13061993;22;20480;-48
2021/04/14 13:13:16;;;;;;;0.00;0.00;;;17.20;56.20;;;;;;13065740;22;20019;-49
2021/04/14 13:18:39;;;;;;;0.47;0.10;;;17.40;56.80;;;;;;13077718;22;20038;-49
2021/04/14 13:24:00;;;;;;;0.13;0.03;;;17.10;55.50;;;;;;13074853;22;20118;-49
2021/04/14 13:29:45;;;;;;;0.50;0.10;;;16.90;58.20;;;;;;13076797;22;20306;-49
2021/04/14 13:35:20;;;;;;;0.82;0.13;;;16.80;54.00;;;;;;13063960;22;20068;-49
2021/04/14 13:41:14;;;;;;;0.17;0.00;;;16.90;57.30;;;;;;13078501;22;20456;-49
2021/04/14 13:46:46;;;;;;;2.45;0.20;;;16.50;56.10;;;;;;13072508;22;20397;-49
2021/04/14 13:52:26;;;;;;;0.20;0.00;;;16.40;58.70;;;;;;13065439;22;20010;-49
2021/04/14 13:57:54;;;;;;;1.05;0.20;;;16.60;56.40;;;;;;13075639;22;20021;-49
2021/04/14 14:03:15;;;;;;;0.40;0.03;;;16.90;56.30;;;;;;13078436;22;20446;-49
2021/04/14 14:08:41;;;;;;;0.65;0.10;;;16.30;56.90;;;;;;13075666;22;20023;-49
2021/04/14 14:14:05;;;;;;;0.32;0.05;;;15.60;57.20;;;;;;13071019;22;20007;-48
2021/04/14 14:19:36;;;;;;;1.05;0.00;;;14.70;60.90;;;;;;13077077;22;20007;-48
2021/04/14 14:24:57;;;;;;;0.10;0.00;;;14.40;63.00;;;;;;13074600;22;20041;-48
2021/04/14 14:30:18;;;;;;;0.50;0.30;;;13.20;65.60;;;;;;13075799;22;20015;-48
2021/04/14 14:35:39;;;;;;;1.95;0.98;;;12.00;72.50;;;;;;13069296;22;20018;-48
2021/04/14 14:41:01;;;;;;;1.75;0.20;;;11.30;90.50;;;;;;13077634;22;20072;-48
2021/04/14 14:46:30;;;;;;;0.95;0.10;;;11.30;94.90;;;;;;13073008;22;20109;-48
2021/04/14 14:51:51;;;;;;;0.00;0.00;;;11.10;95.50;;;;;;13071144;22;20230;-48
2021/04/14 14:57:30;;;;;;;0.20;0.05;;;10.80;97.20;;;;;;13078733;22;20306;-48
2021/04/14 15:02:52;;;;;;;0.40;0.10;;;10.60;96.40;;;;;;13053418;22;20091;-48
2021/04/14 15:08:13;;;;;;;0.45;0.10;;;10.50;99.00;;;;;;13071740;22;20028;-48
2021/04/14 15:13:34;;;;;;;0.30;0.20;;;10.40;99.30;;;;;;13067323;22;20061;-48
2021/04/14 15:18:54;;;;;;;0.20;0.08;;;10.50;99.90;;;;;;13074884;22;20020;-48
2021/04/14 15:24:17;;;;;;;0.82;0.10;;;10.40;99.10;;;;;;13062221;22;20026;-48
2021/04/14 15:29:38;;;;;;;0.17;0.05;;;10.10;99.10;;;;;;13067521;22;20461;-48
2021/04/14 15:34:59;;;;;;;0.20;0.10;;;10.10;97.90;;;;;;13067489;22;20119;-48
2021/04/14 15:40:22;;;;;;;0.22;0.10;;;10.00;99.30;;;;;;13066572;22;20038;-48
2021/04/14 15:45:43;;;;;;;0.50;0.20;;;10.00;99.30;;;;;;13069656;22;20342;-48
2021/04/14 15:51:05;;;;;;;1.40;0.20;;;10.30;99.90;;;;;;13076362;22;20011;-48
2021/04/14 15:56:30;;;;;;;0.28;0.20;;;10.20;99.90;;;;;;13076111;22;20006;-48
2021/04/14 16:01:53;;;;;;;0.85;0.30;;;10.20;99.90;;;;;;13080907;22;20014;-48
2021/04/14 16:07:14;;;;;;;0.10;0.00;;;10.00;96.60;;;;;;13078209;22;20460;-48
2021/04/14 16:12:35;;;;;;;0.35;0.10;;;9.80;96.00;;;;;;13081853;22;20189;-48
2021/04/14 16:18:05;;;;;;;0.93;0.10;;;9.60;98.60;;;;;;13079914;22;20014;-48
2021/04/14 16:23:26;;;;;;;0.20;0.10;;;9.40;99.90;;;;;;13078806;22;20076;-48
2021/04/14 16:28:47;;;;;;;1.35;0.10;;;9.30;98.60;;;;;;13077281;22;20034;-48
2021/04/14 16:34:11;;;;;;;1.95;0.10;;;9.20;99.90;;;;;;13078720;22;20338;-48
2021/04/14 16:39:32;;;;;;;0.13;0.05;;;9.10;99.90;;;;;;13077651;22;20333;-48
2021/04/14 16:44:53;;;;;;;0.10;0.00;;;9.10;99.90;;;;;;13077988;22;20074;-48
2021/04/14 16:50:14;;;;;;;0.40;0.10;;;9.00;99.90;;;;;;13075952;22;20015;-48
2021/04/14 16:55:36;;;;;;;1.30;0.40;;;8.90;99.90;;;;;;13080848;22;20021;-48
2021/04/14 17:01:00;;;;;;;0.65;0.10;;;8.80;99.90;;;;;;13080309;22;20011;-48
2021/04/14 17:06:21;;;;;;;0.00;0.00;;;8.60;99.90;;;;;;13073676;22;20023;-48
2021/04/14 17:11:43;;;;;;;0.35;0.03;;;8.60;99.90;;;;;;13071274;22;20528;-48
2021/04/14 17:17:04;;;;;;;2.20;0.05;;;8.50;99.90;;;;;;13073463;22;20063;-48
2021/04/14 17:22:25;;;;;;;0.30;0.10;;;8.50;99.90;;;;;;13067838;22;20006;-48
2021/04/14 17:27:46;;;;;;;0.10;0.00;;;8.40;99.90;;;;;;13068093;22;20021;-48
2021/04/14 17:33:10;;;;;;;0.00;0.00;;;8.30;99.90;;;;;;13067722;22;20017;-48
2021/04/14 17:38:32;;;;;;;0.43;0.10;;;8.10;99.90;;;;;;13065373;22;20007;-48
2021/04/14 17:43:54;;;;;;;0.22;0.05;;;8.00;99.90;;;;;;13071517;22;20085;-48
2021/04/14 17:49:15;;;;;;;0.70;0.10;;;7.80;99.90;;;;;;13075619;22;20015;-48
2021/04/14 17:54:36;;;;;;;0.15;0.10;;;7.80;99.90;;;;;;13077493;22;20450;-48
2021/04/14 18:00:00;;;;;;;0.22;0.00;;;7.60;99.90;;;;;;13078482;22;20304;-48
2021/04/14 18:05:22;;;;;;;0.13;0.00;;;7.60;99.90;;;;;;13074523;22;20026;-48
2021/04/14 18:10:43;;;;;;;0.30;0.20;;;7.40;99.90;;;;;;13075259;22;20122;-48
2021/04/14 18:16:04;;;;;;;1.60;0.20;;;7.40;99.90;;;;;;13063986;22;20240;-49
2021/04/14 18:21:25;;;;;;;1.20;0.22;;;7.30;99.90;;;;;;13073065;22;20022;-48
2021/04/14 18:26:46;;;;;;;0.40;0.22;;;7.30;99.90;;;;;;13077577;22;20514;-48
2021/04/14 18:32:08;;;;;;;1.50;0.65;;;7.20;99.90;;;;;;13065141;22;20280;-49
2021/04/14 18:37:31;;;;;;;0.98;0.40;;;7.00;99.90;;;;;;13047790;22;20195;-48
2021/04/14 18:42:53;;;;;;;1.25;0.45;;;7.00;99.90;;;;;;13076668;22;20006;-48
2021/04/14 18:48:14;;;;;;;1.88;0.20;;;6.90;99.90;;;;;;13076383;22;20018;-48
2021/04/14 18:53:36;;;;;;;0.30;0.10;;;6.90;99.90;;;;;;13064566;22;20284;-48
2021/04/14 18:58:57;;;;;;;0.10;0.03;;;6.80;99.90;;;;;;13077437;22;20293;-48
2021/04/14 19:04:18;;;;;;;2.55;0.20;;;6.70;99.90;;;;;;13075441;22;20034;-48
2021/04/14 19:09:39;;;;;;;0.22;0.10;;;6.60;99.90;;;;;;13076731;22;20014;-48
2021/04/14 19:15:00;;;;;;;0.52;0.28;;;6.50;99.90;;;;;;13070746;22;20030;-48
2021/04/14 19:20:25;;;;;;;0.28;0.20;;;6.60;99.90;;;;;;13076267;22;20454;-48
2021/04/14 19:25:50;;;;;;;0.30;0.10;;;6.60;99.90;;;;;;13076750;22;20227;-48
2021/04/14 19:31:11;;;;;;;0.38;0.10;;;6.60;99.90;;;;;;13077727;22;20068;-48
2021/04/14 19:36:32;;;;;;;0.17;0.03;;;6.50;99.90;;;;;;13066015;22;20477;-48
2021/04/14 19:41:53;;;;;;;0.75;0.25;;;6.40;99.90;;;;;;13082183;22;20531;-48
2021/04/14 19:47:16;;;;;;;0.00;0.00;;;6.40;99.90;;;;;;13074379;22;20014;-48
2021/04/14 19:52:37;;;;;;;0.15;0.10;;;6.30;99.90;;;;;;13055226;22;20026;-48
2021/04/14 19:57:58;;;;;;;0.43;0.20;;;6.30;99.90;;;;;;13075502;22;20011;-48
2021/04/14 20:03:19;;;;;;;0.45;0.20;;;6.30;99.90;;;;;;13072348;22;20026;-48
2021/04/14 20:08:43;;;;;;;3.95;0.45;;;6.30;99.90;;;;;;13068602;22;20076;-48
2021/04/14 20:14:04;;;;;;;1.25;0.30;;;6.20;99.90;;;;;;13065361;22;20427;-48
2021/04/14 20:19:25;;;;;;;0.63;0.38;;;6.20;99.90;;;;;;13069554;22;20014;-48
2021/04/14 20:24:46;;;;;;;3.13;0.32;;;6.20;99.90;;;;;;13068503;22;20247;-48
2021/04/14 20:30:07;;;;;;;0.30;0.10;;;6.20;99.90;;;;;;13070462;22;20014;-48
2021/04/14 20:35:28;;;;;;;0.30;0.05;;;6.10;99.90;;;;;;13071893;22;20010;-48
2021/04/14 20:40:50;;;;;;;0.28;0.10;;;6.10;99.90;;;;;;13074935;22;20034;-48
2021/04/14 20:46:11;;;;;;;1.90;0.68;;;6.10;99.90;;;;;;13085723;22;20030;-48
2021/04/14 20:51:32;;;;;;;0.75;0.20;;;5.90;99.90;;;;;;13080918;22;20015;-48
2021/04/14 20:56:53;;;;;;;2.20;0.38;;;5.90;99.90;;;;;;13083601;22;20015;-49
2021/04/14 21:02:14;;;;;;;1.00;0.20;;;5.70;99.90;;;;;;13083302;22;20355;-48
2021/04/14 21:07:35;;;;;;;0.85;0.50;;;5.60;99.90;;;;;;13078417;22;20462;-48
2021/04/14 21:12:56;;;;;;;0.88;0.40;;;5.50;99.90;;;;;;13078559;22;20021;-48
2021/04/14 21:18:17;;;;;;;0.85;0.28;;;5.40;99.90;;;;;;13078919;22;20106;-49
2021/04/14 21:23:39;;;;;;;1.92;0.30;;;5.30;99.90;;;;;;13079821;22;20018;-49
2021/04/14 21:29:00;;;;;;;0.40;0.20;;;5.30;99.90;;;;;;13086198;22;20029;-49
2021/04/14 21:34:21;;;;;;;4.32;0.50;;;5.20;99.90;;;;;;13081594;22;20141;-49
2021/04/14 21:39:43;;;;;;;0.73;0.57;;;5.10;99.90;;;;;;13081847;22;20020;-49
2021/04/14 21:45:05;;;;;;;0.68;0.32;;;5.10;99.90;;;;;;13088598;22;20007;-49
2021/04/14 21:50:29;;;;;;;2.17;0.60;;;5.00;99.90;;;;;;13082944;22;20011;-49
2021/04/14 21:55:50;;;;;;;1.10;0.50;;;5.00;99.90;;;;;;13083829;22;20282;-49
2021/04/14 22:01:11;;;;;;;1.90;0.30;;;5.00;99.90;;;;;;13082656;22;20010;-49
2021/04/14 22:06:32;;;;;;;1.08;0.28;;;5.00;99.90;;;;;;13080166;22;20026;-49
2021/04/14 22:11:53;;;;;;;1.10;0.30;;;4.90;99.90;;;;;;13082338;22;20469;-49
2021/04/14 22:17:14;;;;;;;1.13;0.30;;;4.90;99.90;;;;;;13081261;22;20015;-49
2021/04/14 22:22:35;;;;;;;2.10;0.30;;;4.80;99.90;;;;;;13082560;22;20010;-49
2021/04/14 22:27:57;;;;;;;0.77;0.45;;;4.80;99.90;;;;;;13079203;22;20015;-49
2021/04/14 22:33:21;;;;;;;0.65;0.25;;;4.80;99.90;;;;;;13081017;22;20113;-49
2021/04/14 22:38:45;;;;;;;3.30;0.20;;;4.70;99.90;;;;;;13080771;22;20355;-49
2021/04/14 22:44:06;;;;;;;1.00;0.32;;;4.60;99.90;;;;;;13081437;22;20018;-49
2021/04/14 22:49:27;;;;;;;1.52;0.50;;;4.60;99.90;;;;;;13081190;22;20015;-49
2021/04/14 22:54:48;;;;;;;1.33;0.30;;;4.60;99.90;;;;;;13083315;22;20015;-49
2021/04/14 23:00:20;;;;;;;1.65;0.55;;;4.50;99.90;;;;;;13083624;22;20034;-48
2021/04/14 23:05:41;;;;;;;2.17;0.47;;;4.50;99.90;;;;;;13077840;22;20810;-49
2021/04/14 23:11:04;;;;;;;0.85;0.40;;;4.50;99.90;;;;;;13081688;22;20478;-48
2021/04/14 23:16:25;;;;;;;1.40;0.52;;;4.50;99.90;;;;;;13081750;22;20018;-49
2021/04/14 23:21:46;;;;;;;1.05;0.47;;;4.50;99.90;;;;;;13078837;22;20021;-49
2021/04/14 23:27:07;;;;;;;0.32;0.17;;;4.50;99.90;;;;;;13081000;22;20068;-48
2021/04/14 23:32:28;;;;;;;2.25;0.47;;;4.50;99.90;;;;;;13080545;22;20027;-49
2021/04/14 23:37:49;;;;;;;1.23;0.40;;;4.50;99.90;;;;;;13079566;22;20025;-49
2021/04/14 23:43:13;;;;;;;0.55;0.20;;;4.60;99.90;;;;;;13083316;22;20015;-49
2021/04/14 23:48:33;;;;;;;1.20;0.32;;;4.60;99.90;;;;;;13080841;22;20011;-49
2021/04/14 23:53:54;;;;;;;2.40;0.60;;;4.60;99.90;;;;;;13082415;22;20098;-49
2021/04/14 23:59:18;;;;;;;2.00;0.52;;;4.50;99.90;;;;;;13079092;22;20022;-49
